Terminal Aerodrome Forecast
Issued by NWS

Current Version | Previous Version | Graphics & Text | Print | Product List | Glossary On
Versions: 1 2 3 4 5 6 7 8 9 10 11 12 13 14 15 16 17 18 19 20 21 22 23 24 25 26 27 28
000
FTUS41 KILN 231138
TAFLUK
TAF
KLUK 231138Z 2312/2412 VRB03KT P6SM SCT200
      TEMPO 2312/2313 5SM BR
     FM231400 VRB03KT P6SM FEW040 SCT250
     FM240500 00000KT P6SM BKN120
     FM240700 00000KT 4SM BR BKN100
     FM241000 00000KT 2SM BR BKN080=

USA.gov is the U.S. government's official web portal to all federal, state and local government web resources and services.